createdAt,value
2022-12-29T00:00:46.323Z,8.56
2022-12-29T00:01:46.553Z,8.60
2022-12-29T00:02:46.980Z,8.63
2022-12-29T00:03:47.441Z,8.64
2022-12-29T00:04:47.677Z,8.67
2022-12-29T00:05:48.032Z,8.66
2022-12-29T00:06:48.384Z,8.69
2022-12-29T00:07:48.751Z,8.73
2022-12-29T00:08:49.067Z,8.74
2022-12-29T00:09:49.412Z,8.79
2022-12-29T00:10:49.783Z,8.79
2022-12-29T00:11:50.094Z,8.84
2022-12-29T00:12:50.436Z,8.89
2022-12-29T00:13:50.820Z,8.92
2022-12-29T00:14:51.152Z,8.92
2022-12-29T00:15:51.548Z,8.92
2022-12-29T00:16:51.868Z,8.94
2022-12-29T00:17:52.237Z,9.00
2022-12-29T00:18:52.590Z,9.00
2022-12-29T00:19:52.919Z,8.99
2022-12-29T00:20:53.278Z,8.99
2022-12-29T00:21:53.610Z,8.97
2022-12-29T00:22:53.966Z,8.97
2022-12-29T00:23:54.328Z,9.00
2022-12-29T00:24:54.666Z,9.03
2022-12-29T00:25:54.990Z,9.03
2022-12-29T00:26:55.352Z,9.03
2022-12-29T00:27:55.719Z,9.06
2022-12-29T00:28:56.399Z,9.06
2022-12-29T00:29:56.385Z,9.04
2022-12-29T00:30:56.829Z,9.11
2022-12-29T00:31:57.124Z,9.11
2022-12-29T00:32:57.465Z,9.10
2022-12-29T00:33:57.834Z,9.08
2022-12-29T00:34:58.199Z,9.11
2022-12-29T00:35:58.509Z,9.14
2022-12-29T00:36:58.860Z,9.13
2022-12-29T00:37:59.202Z,9.13
2022-12-29T00:38:59.580Z,9.11
2022-12-29T00:39:59.928Z,9.08
2022-12-29T00:41:00.231Z,9.14
2022-12-29T00:42:00.619Z,9.14
2022-12-29T00:43:00.961Z,9.13
2022-12-29T00:44:01.302Z,9.13
2022-12-29T00:45:01.630Z,9.18
2022-12-29T00:46:01.970Z,9.19
2022-12-29T00:47:02.380Z,9.18
2022-12-29T00:48:02.681Z,9.18
2022-12-29T00:49:03.044Z,9.22
2022-12-29T00:50:03.377Z,9.22
2022-12-29T00:51:03.731Z,9.19
2022-12-29T00:52:04.121Z,9.18
2022-12-29T00:53:04.467Z,9.19
2022-12-29T00:54:04.841Z,9.21
2022-12-29T00:55:05.096Z,9.25
2022-12-29T00:56:05.469Z,9.26
2022-12-29T00:57:05.786Z,9.28
2022-12-29T00:58:06.178Z,9.26
2022-12-29T00:59:06.554Z,9.28
2022-12-29T01:00:06.835Z,9.31
2022-12-29T01:01:07.351Z,9.31
2022-12-29T01:02:07.644Z,9.32
2022-12-29T01:03:07.967Z,9.34
2022-12-29T01:04:08.274Z,9.37
2022-12-29T01:05:08.543Z,9.39
2022-12-29T01:06:08.895Z,9.37
2022-12-29T01:07:09.252Z,9.39
2022-12-29T01:08:09.584Z,9.40
2022-12-29T01:09:09.965Z,9.43
2022-12-29T01:10:10.279Z,9.41
2022-12-29T01:11:10.651Z,9.41
2022-12-29T01:12:10.975Z,9.40
2022-12-29T01:13:11.312Z,9.39
2022-12-29T01:14:11.711Z,9.39
2022-12-29T01:15:11.998Z,9.39
2022-12-29T01:16:12.388Z,9.36
2022-12-29T01:17:12.715Z,9.39
2022-12-29T01:18:13.039Z,9.37
2022-12-29T01:19:13.398Z,9.41
2022-12-29T01:20:13.698Z,9.40
2022-12-29T01:21:14.128Z,9.43
2022-12-29T01:22:14.404Z,9.43
2022-12-29T01:23:14.749Z,9.43
2022-12-29T01:24:15.124Z,9.41
2022-12-29T01:25:15.418Z,9.44
2022-12-29T01:26:15.775Z,9.41
2022-12-29T01:27:16.112Z,9.39
2022-12-29T01:28:18.719Z,9.40
2022-12-29T01:29:16.820Z,9.37
2022-12-29T01:30:17.147Z,9.36
2022-12-29T01:31:17.555Z,9.32
2022-12-29T01:32:18.141Z,9.34
2022-12-29T01:33:18.210Z,9.36
2022-12-29T01:34:18.548Z,9.29
2022-12-29T01:35:18.851Z,9.28
2022-12-29T01:36:19.202Z,9.28
2022-12-29T01:37:19.562Z,9.29
2022-12-29T01:38:19.969Z,9.28
2022-12-29T01:39:20.251Z,9.25
2022-12-29T01:40:20.604Z,9.25
2022-12-29T01:41:20.993Z,9.25
2022-12-29T01:42:21.264Z,9.23
2022-12-29T01:43:21.597Z,9.21
2022-12-29T01:44:21.979Z,9.23
2022-12-29T01:45:22.314Z,9.22
2022-12-29T01:46:22.658Z,9.25
2022-12-29T01:47:22.948Z,9.22
2022-12-29T01:48:23.305Z,9.22
2022-12-29T01:49:23.673Z,9.22
2022-12-29T01:50:23.985Z,9.25
2022-12-29T01:51:24.356Z,9.22
2022-12-29T01:52:24.721Z,9.21
2022-12-29T01:53:25.024Z,9.21
2022-12-29T01:54:25.413Z,9.19
2022-12-29T01:55:25.725Z,9.22
2022-12-29T01:56:26.093Z,9.22
2022-12-29T01:57:26.420Z,9.22
2022-12-29T01:58:26.725Z,9.21
2022-12-29T01:59:27.093Z,9.19
2022-12-29T02:00:27.397Z,9.22
2022-12-29T02:01:27.845Z,9.23
2022-12-29T02:02:32.426Z,9.22
2022-12-29T02:03:28.521Z,9.22
2022-12-29T02:04:28.794Z,9.21
2022-12-29T02:05:29.178Z,9.22
2022-12-29T02:06:29.490Z,9.23
2022-12-29T02:07:29.833Z,9.25
2022-12-29T02:08:30.178Z,9.26
2022-12-29T02:09:30.534Z,9.28
2022-12-29T02:10:30.949Z,9.29
2022-12-29T02:11:31.206Z,9.29
2022-12-29T02:12:31.580Z,9.28
2022-12-29T02:13:31.919Z,9.31
2022-12-29T02:14:32.260Z,9.32
2022-12-29T02:15:32.589Z,9.31
2022-12-29T02:16:32.999Z,9.28
2022-12-29T02:17:33.323Z,9.29
2022-12-29T02:18:33.633Z,9.36
2022-12-29T02:19:33.998Z,9.39
2022-12-29T02:20:34.370Z,9.39
2022-12-29T02:21:34.647Z,9.39
2022-12-29T02:22:34.989Z,9.40
2022-12-29T02:23:35.328Z,9.41
2022-12-29T02:24:35.735Z,9.46
2022-12-29T02:25:36.006Z,9.48
2022-12-29T02:26:36.351Z,9.47
2022-12-29T02:27:36.703Z,9.51
2022-12-29T02:28:37.054Z,9.51
2022-12-29T02:29:37.409Z,9.50
2022-12-29T02:30:37.750Z,9.54
2022-12-29T02:31:38.129Z,9.54
2022-12-29T02:32:38.443Z,9.56
2022-12-29T02:33:38.790Z,9.51
2022-12-29T02:34:39.102Z,9.51
2022-12-29T02:35:39.445Z,9.55
2022-12-29T02:36:39.805Z,9.55
2022-12-29T02:37:40.147Z,9.55
2022-12-29T02:38:40.492Z,9.58
2022-12-29T02:39:40.837Z,9.59
2022-12-29T02:40:41.166Z,9.58
2022-12-29T02:41:41.523Z,9.62
2022-12-29T02:42:41.850Z,9.64
2022-12-29T02:43:42.225Z,9.66
2022-12-29T02:44:42.573Z,9.69
2022-12-29T02:45:42.930Z,9.66
2022-12-29T02:46:43.221Z,9.72
2022-12-29T02:47:43.587Z,9.76
2022-12-29T02:48:43.927Z,9.76
2022-12-29T02:49:44.415Z,9.77
2022-12-29T02:50:44.556Z,9.79
2022-12-29T02:51:44.959Z,9.77
2022-12-29T02:52:45.253Z,9.76
2022-12-29T02:53:45.589Z,9.76
2022-12-29T02:54:45.980Z,9.76
2022-12-29T02:55:46.269Z,9.80
2022-12-29T02:56:46.630Z,9.80
2022-12-29T02:57:46.975Z,9.82
2022-12-29T02:58:47.341Z,9.82
2022-12-29T02:59:47.696Z,9.83
2022-12-29T03:00:48.054Z,9.84
2022-12-29T03:01:48.472Z,9.84
2022-12-29T03:02:48.831Z,9.86
2022-12-29T03:03:49.015Z,9.86
2022-12-29T03:04:49.369Z,9.86
2022-12-29T03:05:49.704Z,9.89
2022-12-29T03:06:50.098Z,9.92
2022-12-29T03:07:50.425Z,9.91
2022-12-29T03:08:50.793Z,9.94
2022-12-29T03:09:51.100Z,9.92
2022-12-29T03:10:51.452Z,9.92
2022-12-29T03:11:51.783Z,9.92
2022-12-29T03:12:52.151Z,9.92
2022-12-29T03:13:52.527Z,9.89
2022-12-29T03:14:52.833Z,9.86
2022-12-29T03:15:53.129Z,9.86
2022-12-29T03:16:53.551Z,9.91
2022-12-29T03:17:53.867Z,9.87
2022-12-29T03:18:54.198Z,9.87
2022-12-29T03:19:54.568Z,9.89
2022-12-29T03:20:54.899Z,9.87
2022-12-29T03:21:55.224Z,9.89
2022-12-29T03:22:55.554Z,9.87
2022-12-29T03:23:55.887Z,9.91
2022-12-29T03:24:56.274Z,9.94
2022-12-29T03:25:56.590Z,9.92
2022-12-29T03:26:56.944Z,9.95
2022-12-29T03:27:57.267Z,9.97
2022-12-29T03:28:57.592Z,9.98
2022-12-29T03:29:57.950Z,9.99
2022-12-29T03:30:58.349Z,9.97
2022-12-29T03:31:58.661Z,9.98
2022-12-29T03:32:59.000Z,9.99
2022-12-29T03:33:59.337Z,9.99
2022-12-29T03:34:59.748Z,9.98
2022-12-29T03:36:00.027Z,9.97
2022-12-29T03:37:00.381Z,10.05
2022-12-29T03:38:00.745Z,10.19
2022-12-29T03:39:01.119Z,10.15
2022-12-29T03:40:01.485Z,10.12
2022-12-29T03:41:01.803Z,10.10
2022-12-29T03:42:02.176Z,10.12
2022-12-29T03:43:02.515Z,10.12
2022-12-29T03:44:02.869Z,10.09
2022-12-29T03:45:03.174Z,10.12
2022-12-29T03:46:03.606Z,10.10
2022-12-29T03:47:03.898Z,10.10
2022-12-29T03:48:04.272Z,10.19
2022-12-29T03:49:04.620Z,10.20
2022-12-29T03:50:04.996Z,10.26
2022-12-29T03:51:05.342Z,10.23
2022-12-29T03:52:05.733Z,10.26
2022-12-29T03:53:06.040Z,10.26
2022-12-29T03:54:06.405Z,10.31
2022-12-29T03:55:06.836Z,10.33
2022-12-29T03:56:07.126Z,10.31
2022-12-29T03:57:07.489Z,10.31
2022-12-29T03:58:07.850Z,10.31
2022-12-29T03:59:08.231Z,10.31
2022-12-29T04:00:08.576Z,10.34
2022-12-29T04:01:08.930Z,10.30
2022-12-29T04:02:09.455Z,10.26
2022-12-29T04:03:09.807Z,10.37
2022-12-29T04:04:09.978Z,10.34
2022-12-29T04:05:10.350Z,10.34
2022-12-29T04:06:10.716Z,10.35
2022-12-29T04:07:11.059Z,10.37
2022-12-29T04:08:11.417Z,10.35
2022-12-29T04:09:11.781Z,10.34
2022-12-29T04:10:12.183Z,10.33
2022-12-29T04:11:12.506Z,10.35
2022-12-29T04:12:12.884Z,10.37
2022-12-29T04:13:13.228Z,10.41
2022-12-29T04:14:13.588Z,10.44
2022-12-29T04:15:14.015Z,10.44
2022-12-29T04:16:14.321Z,10.41
2022-12-29T04:17:14.676Z,10.44
2022-12-29T04:18:15.028Z,10.38
2022-12-29T04:19:15.326Z,10.35
2022-12-29T04:20:15.739Z,10.41
2022-12-29T04:21:16.109Z,10.40
2022-12-29T04:22:16.448Z,10.40
2022-12-29T04:23:16.762Z,10.41
2022-12-29T04:24:17.174Z,10.40
2022-12-29T04:25:17.469Z,10.35
2022-12-29T04:26:17.806Z,10.34
2022-12-29T04:27:18.171Z,10.41
2022-12-29T04:28:18.752Z,10.38
2022-12-29T04:29:18.884Z,10.38
2022-12-29T04:30:19.272Z,10.38
2022-12-29T04:31:19.623Z,10.40
2022-12-29T04:32:19.977Z,10.40
2022-12-29T04:33:20.370Z,10.37
2022-12-29T04:34:20.695Z,10.35
2022-12-29T04:35:21.059Z,10.35
2022-12-29T04:36:27.782Z,10.35
2022-12-29T04:37:21.785Z,10.42
2022-12-29T04:38:22.185Z,10.48
2022-12-29T04:39:22.507Z,10.49
2022-12-29T04:40:22.913Z,10.53
2022-12-29T04:41:23.219Z,10.51
2022-12-29T04:42:23.589Z,10.48
2022-12-29T04:43:23.945Z,10.53
2022-12-29T04:44:24.307Z,10.51
2022-12-29T04:45:24.665Z,10.44
2022-12-29T04:46:25.147Z,10.44
2022-12-29T04:47:25.344Z,10.44
2022-12-29T04:48:25.715Z,10.42
2022-12-29T04:49:26.103Z,10.42
2022-12-29T04:50:26.475Z,10.42
2022-12-29T04:51:26.793Z,10.41
2022-12-29T04:52:27.139Z,10.42
2022-12-29T04:53:27.490Z,10.41
2022-12-29T04:54:27.880Z,10.38
2022-12-29T04:55:28.259Z,10.35
2022-12-29T04:56:28.578Z,10.35
2022-12-29T04:57:28.934Z,10.34
2022-12-29T04:58:29.280Z,10.34
2022-12-29T04:59:29.617Z,10.33
2022-12-29T05:00:30.033Z,10.28
2022-12-29T05:01:30.449Z,10.25
2022-12-29T05:02:31.035Z,10.23
2022-12-29T05:03:31.068Z,10.22
2022-12-29T05:04:31.416Z,10.28
2022-12-29T05:05:31.790Z,10.28
2022-12-29T05:06:32.177Z,10.33
2022-12-29T05:07:32.510Z,10.33
2022-12-29T05:08:32.864Z,10.37
2022-12-29T05:09:33.213Z,10.40
2022-12-29T05:10:33.622Z,10.41
2022-12-29T05:11:33.918Z,10.38
2022-12-29T05:12:34.288Z,10.41
2022-12-29T05:13:34.643Z,10.42
2022-12-29T05:14:34.994Z,10.41
2022-12-29T05:15:35.339Z,10.38
2022-12-29T05:16:35.732Z,10.34
2022-12-29T05:17:36.021Z,10.33
2022-12-29T05:18:36.346Z,10.30
2022-12-29T05:19:36.713Z,10.28
2022-12-29T05:20:37.097Z,10.31
2022-12-29T05:21:37.430Z,10.35
2022-12-29T05:22:37.805Z,10.37
2022-12-29T05:23:38.135Z,10.40
2022-12-29T05:24:38.505Z,10.41
2022-12-29T05:25:38.904Z,10.41
2022-12-29T05:26:39.217Z,10.48
2022-12-29T05:27:39.606Z,10.49
2022-12-29T05:28:39.951Z,10.49
2022-12-29T05:29:40.323Z,10.49
2022-12-29T05:30:40.665Z,10.51
2022-12-29T05:31:41.080Z,10.57
2022-12-29T05:32:41.356Z,10.57
2022-12-29T05:33:41.670Z,10.54
2022-12-29T05:34:42.068Z,10.53
2022-12-29T05:35:42.403Z,10.59
2022-12-29T05:36:42.736Z,10.61
2022-12-29T05:37:43.083Z,10.68
2022-12-29T05:38:43.457Z,10.82
2022-12-29T05:39:43.790Z,10.78
2022-12-29T05:40:44.180Z,10.81
2022-12-29T05:41:44.492Z,10.79
2022-12-29T05:42:44.871Z,10.74
2022-12-29T05:43:45.227Z,10.74
2022-12-29T05:44:45.601Z,10.72
2022-12-29T05:45:45.964Z,10.75
2022-12-29T05:46:46.404Z,10.75
2022-12-29T05:47:46.678Z,10.71
2022-12-29T05:48:47.058Z,10.67
2022-12-29T05:49:47.410Z,10.63
2022-12-29T05:50:47.793Z,10.68
2022-12-29T05:51:48.119Z,10.72
2022-12-29T05:52:48.514Z,10.69
2022-12-29T05:53:48.872Z,10.64
2022-12-29T05:54:49.205Z,10.64
2022-12-29T05:55:49.634Z,10.64
2022-12-29T05:56:49.936Z,10.68
2022-12-29T05:57:50.318Z,10.68
2022-12-29T05:58:50.639Z,10.64
2022-12-29T05:59:51.047Z,10.64
2022-12-29T06:00:51.389Z,10.63
2022-12-29T06:01:51.953Z,10.64
2022-12-29T06:02:52.287Z,10.64
2022-12-29T06:03:52.585Z,10.72
2022-12-29T06:04:52.803Z,10.72
2022-12-29T06:05:53.149Z,10.71
2022-12-29T06:06:53.466Z,10.69
2022-12-29T06:07:53.805Z,10.64
2022-12-29T06:08:54.199Z,10.57
2022-12-29T06:09:54.539Z,10.56
2022-12-29T06:10:54.909Z,10.53
2022-12-29T06:11:55.235Z,10.59
2022-12-29T06:12:55.596Z,10.59
2022-12-29T06:13:55.972Z,10.57
2022-12-29T06:14:56.350Z,10.51
2022-12-29T06:15:56.731Z,10.46
2022-12-29T06:16:57.062Z,10.42
2022-12-29T06:17:57.380Z,10.41
2022-12-29T06:18:57.750Z,10.41
2022-12-29T06:19:58.102Z,10.40
2022-12-29T06:20:58.533Z,10.42
2022-12-29T06:21:58.875Z,10.42
2022-12-29T06:22:59.159Z,10.44
2022-12-29T06:23:59.527Z,10.41
2022-12-29T06:25:04.612Z,10.44
2022-12-29T06:26:00.294Z,10.41
2022-12-29T06:27:00.614Z,10.41
2022-12-29T06:28:00.983Z,10.41
2022-12-29T06:29:01.301Z,10.40
2022-12-29T06:30:01.717Z,10.38
2022-12-29T06:31:02.011Z,10.37
2022-12-29T06:32:02.429Z,10.34
2022-12-29T06:33:02.708Z,10.34
2022-12-29T06:34:08.156Z,10.35
2022-12-29T06:35:03.440Z,10.31
2022-12-29T06:36:03.834Z,10.30
2022-12-29T06:37:04.158Z,10.38
2022-12-29T06:38:04.529Z,10.40
2022-12-29T06:39:04.922Z,10.40
2022-12-29T06:40:05.266Z,10.40
2022-12-29T06:41:05.645Z,10.38
2022-12-29T06:42:05.966Z,10.41
2022-12-29T06:43:06.335Z,10.42
2022-12-29T06:44:06.689Z,10.42
2022-12-29T06:45:07.051Z,10.41
2022-12-29T06:46:07.493Z,10.44
2022-12-29T06:47:07.771Z,10.38
2022-12-29T06:48:08.139Z,10.34
2022-12-29T06:49:08.503Z,10.33
2022-12-29T06:50:08.880Z,10.30
2022-12-29T06:51:09.270Z,10.31
2022-12-29T06:52:12.975Z,10.31
2022-12-29T06:53:09.960Z,10.30
2022-12-29T06:54:10.302Z,10.28
2022-12-29T06:55:10.643Z,10.26
2022-12-29T06:56:11.059Z,10.26
2022-12-29T06:57:11.368Z,10.30
2022-12-29T06:58:11.712Z,10.31
2022-12-29T06:59:12.103Z,10.28
2022-12-29T07:00:12.427Z,10.23
2022-12-29T07:01:12.921Z,10.23
2022-12-29T07:02:13.577Z,10.23
2022-12-29T07:03:13.641Z,10.30
2022-12-29T07:04:13.849Z,10.30
2022-12-29T07:05:14.259Z,10.30
2022-12-29T07:06:14.430Z,10.28
2022-12-29T07:07:14.773Z,10.25
2022-12-29T07:08:14.997Z,10.25
2022-12-29T07:09:15.279Z,10.20
2022-12-29T07:10:15.588Z,10.20
2022-12-29T07:11:15.932Z,10.22
2022-12-29T07:12:16.214Z,10.22
2022-12-29T07:13:16.486Z,10.19
2022-12-29T07:14:16.791Z,10.19
2022-12-29T07:15:17.065Z,10.19
2022-12-29T07:16:17.414Z,10.23
2022-12-29T07:17:17.596Z,10.30
2022-12-29T07:18:17.912Z,10.38
2022-12-29T07:19:18.268Z,10.38
2022-12-29T07:20:21.941Z,10.38
2022-12-29T07:21:18.770Z,10.38
2022-12-29T07:22:18.916Z,10.34
2022-12-29T07:23:19.221Z,10.31
2022-12-29T07:24:19.383Z,10.26
2022-12-29T07:25:19.653Z,10.22
2022-12-29T07:26:19.828Z,10.20
2022-12-29T07:27:20.127Z,10.19
2022-12-29T07:28:20.277Z,10.30
2022-12-29T07:29:20.570Z,10.37
2022-12-29T07:30:20.988Z,10.44
2022-12-29T07:31:21.262Z,10.51
2022-12-29T07:32:21.480Z,10.57
2022-12-29T07:33:21.728Z,10.60
2022-12-29T07:34:22.032Z,10.56
2022-12-29T07:35:22.299Z,10.54
2022-12-29T07:36:22.615Z,10.51
2022-12-29T07:37:22.905Z,10.48
2022-12-29T07:38:23.057Z,10.44
2022-12-29T07:39:23.344Z,10.49
2022-12-29T07:40:23.504Z,10.53
2022-12-29T07:41:23.693Z,10.48
2022-12-29T07:42:23.842Z,10.44
2022-12-29T07:43:24.028Z,10.41
2022-12-29T07:44:24.311Z,10.37
2022-12-29T07:45:24.496Z,10.37
2022-12-29T07:46:54.534Z,10.37
2022-12-29T07:47:24.915Z,10.37
2022-12-29T07:48:25.017Z,10.38
2022-12-29T07:49:25.208Z,10.41
2022-12-29T07:50:25.384Z,10.37
2022-12-29T07:51:25.677Z,10.33
2022-12-29T07:52:25.827Z,10.30
2022-12-29T07:53:26.016Z,10.26
2022-12-29T07:54:26.202Z,10.22
2022-12-29T07:55:26.354Z,10.30
2022-12-29T07:56:26.581Z,10.30
2022-12-29T07:57:31.812Z,10.35
2022-12-29T07:58:26.990Z,10.40
2022-12-29T07:59:27.189Z,10.38
2022-12-29T08:00:27.338Z,10.40
2022-12-29T08:01:27.706Z,10.35
2022-12-29T08:02:28.064Z,10.37
2022-12-29T08:03:28.012Z,10.37
2022-12-29T08:04:28.147Z,10.33
2022-12-29T08:05:28.339Z,10.30
2022-12-29T08:06:28.545Z,10.28
2022-12-29T08:07:28.803Z,10.33
2022-12-29T08:08:28.995Z,10.33
2022-12-29T08:09:29.181Z,10.31
2022-12-29T08:10:29.363Z,10.26
2022-12-29T08:11:29.536Z,10.26
2022-12-29T08:12:29.724Z,10.25
2022-12-29T08:13:29.988Z,10.22
2022-12-29T08:14:30.157Z,10.22
2022-12-29T08:15:32.741Z,10.20
2022-12-29T08:16:30.797Z,10.15
2022-12-29T08:17:30.911Z,10.16
2022-12-29T08:18:31.142Z,10.19
2022-12-29T08:19:31.268Z,10.20
2022-12-29T08:20:31.418Z,10.19
2022-12-29T08:21:31.612Z,10.16
2022-12-29T08:22:31.782Z,10.13
2022-12-29T08:23:31.966Z,10.13
2022-12-29T08:24:32.184Z,10.15
2022-12-29T08:25:32.310Z,10.20
2022-12-29T08:26:32.547Z,10.19
2022-12-29T08:27:32.674Z,10.20
2022-12-29T08:28:32.892Z,10.19
2022-12-29T08:29:33.148Z,10.22
2022-12-29T08:30:33.333Z,10.20
2022-12-29T08:31:33.541Z,10.25
2022-12-29T08:32:33.666Z,10.28
2022-12-29T08:33:33.952Z,10.37
2022-12-29T08:34:34.023Z,10.34
2022-12-29T08:35:34.205Z,10.31
2022-12-29T08:36:34.463Z,10.28
2022-12-29T08:37:34.600Z,10.28
2022-12-29T08:38:34.773Z,10.26
2022-12-29T08:39:34.975Z,10.28
2022-12-29T08:40:35.145Z,10.26
2022-12-29T08:41:35.308Z,10.30
2022-12-29T08:42:35.491Z,10.30
2022-12-29T08:43:35.782Z,10.33
2022-12-29T08:44:35.950Z,10.33
2022-12-29T08:45:36.158Z,10.34
2022-12-29T08:46:36.469Z,10.40
2022-12-29T08:47:36.494Z,10.41
2022-12-29T08:48:36.788Z,10.40
2022-12-29T08:49:36.974Z,10.35
2022-12-29T08:50:37.275Z,10.37
2022-12-29T08:51:37.608Z,10.34
2022-12-29T08:52:37.742Z,10.33
2022-12-29T08:53:37.947Z,10.31
2022-12-29T08:54:38.238Z,10.33
2022-12-29T08:55:38.466Z,10.33
2022-12-29T08:56:38.683Z,10.33
2022-12-29T08:57:38.774Z,10.38
2022-12-29T08:58:39.057Z,10.38
2022-12-29T08:59:39.265Z,10.46
2022-12-29T09:00:39.572Z,10.49
2022-12-29T09:01:39.843Z,10.48
2022-12-29T09:02:40.307Z,10.46
2022-12-29T09:04:40.516Z,10.48
2022-12-29T09:05:40.598Z,10.48
2022-12-29T09:06:41.019Z,10.44
2022-12-29T09:07:40.933Z,10.42
2022-12-29T09:08:41.279Z,10.49
2022-12-29T09:09:41.435Z,10.51
2022-12-29T09:10:41.623Z,10.48
2022-12-29T09:11:41.809Z,10.49
2022-12-29T09:12:41.974Z,10.49
2022-12-29T09:13:42.188Z,10.46
2022-12-29T09:14:42.365Z,10.46
2022-12-29T09:15:42.570Z,10.41
2022-12-29T09:16:42.765Z,10.40
2022-12-29T09:17:42.922Z,10.38
2022-12-29T09:18:43.201Z,10.35
2022-12-29T09:19:43.219Z,10.34
2022-12-29T09:20:43.390Z,10.31
2022-12-29T09:21:43.619Z,10.38
2022-12-29T09:22:43.728Z,10.40
2022-12-29T09:23:43.893Z,10.40
2022-12-29T09:24:44.120Z,10.44
2022-12-29T09:25:44.239Z,10.44
2022-12-29T09:26:47.073Z,10.42
2022-12-29T09:27:44.685Z,10.42
2022-12-29T09:28:44.895Z,10.46
2022-12-29T09:29:45.057Z,10.54
2022-12-29T09:30:45.354Z,10.57
2022-12-29T09:31:45.460Z,10.60
2022-12-29T09:32:47.727Z,10.59
2022-12-29T09:33:45.779Z,10.60
2022-12-29T09:34:45.976Z,10.64
2022-12-29T09:35:46.314Z,10.63
2022-12-29T09:36:46.644Z,10.63
2022-12-29T09:37:46.757Z,10.61
2022-12-29T09:38:47.063Z,10.63
2022-12-29T09:39:53.922Z,10.61
2022-12-29T09:40:47.471Z,10.63
2022-12-29T09:41:47.639Z,10.61
2022-12-29T09:42:47.798Z,10.61
2022-12-29T09:43:47.989Z,10.63
2022-12-29T09:44:48.151Z,10.68
2022-12-29T09:45:48.475Z,10.64
2022-12-29T09:46:48.770Z,10.61
2022-12-29T09:47:48.894Z,10.61
2022-12-29T09:48:49.112Z,10.60
2022-12-29T09:49:49.291Z,10.64
2022-12-29T09:50:49.610Z,10.67
2022-12-29T09:51:49.979Z,10.68
2022-12-29T09:52:50.078Z,10.69
2022-12-29T09:53:50.255Z,10.74
2022-12-29T09:54:58.072Z,10.71
2022-12-29T09:55:50.622Z,10.71
2022-12-29T09:56:50.826Z,10.69
2022-12-29T09:57:50.968Z,10.71
2022-12-29T09:58:51.180Z,10.72
2022-12-29T09:59:51.366Z,10.71
2022-12-29T10:00:55.292Z,10.72
2022-12-29T10:01:52.077Z,10.71
2022-12-29T10:02:52.082Z,10.74
2022-12-29T10:03:52.072Z,10.78
2022-12-29T10:04:52.395Z,10.79
2022-12-29T10:05:52.719Z,10.82
2022-12-29T10:07:52.943Z,10.89
2022-12-29T10:08:53.101Z,10.89
2022-12-29T10:09:53.287Z,10.89
2022-12-29T10:10:53.447Z,10.90
2022-12-29T10:11:53.625Z,10.90
2022-12-29T10:12:53.776Z,10.94
2022-12-29T10:13:54.095Z,10.94
2022-12-29T10:14:54.280Z,10.92
2022-12-29T10:15:54.572Z,10.90
2022-12-29T10:16:54.645Z,10.90
2022-12-29T10:17:54.941Z,10.89
2022-12-29T10:18:55.088Z,10.89
2022-12-29T10:19:55.270Z,10.97
2022-12-29T10:20:55.488Z,10.99
2022-12-29T10:21:55.669Z,10.93
2022-12-29T10:22:55.817Z,10.97
2022-12-29T10:23:56.024Z,11.02
2022-12-29T10:24:56.218Z,11.10
2022-12-29T10:25:56.353Z,11.15
2022-12-29T10:26:56.546Z,11.15
2022-12-29T10:27:56.712Z,11.14
2022-12-29T10:28:57.020Z,11.14
2022-12-29T10:29:57.206Z,11.10
2022-12-29T10:30:57.381Z,11.11
2022-12-29T10:31:57.617Z,11.10
2022-12-29T10:32:57.722Z,11.10
2022-12-29T10:33:58.007Z,11.11
2022-12-29T10:34:58.167Z,11.14
2022-12-29T10:35:58.515Z,11.15
2022-12-29T10:36:58.657Z,11.15
2022-12-29T10:37:58.819Z,11.14
2022-12-29T10:38:59.181Z,11.14
2022-12-29T10:39:59.292Z,11.15
2022-12-29T10:40:59.470Z,11.12
2022-12-29T10:41:59.649Z,11.14
2022-12-29T10:42:59.824Z,11.14
2022-12-29T10:43:59.998Z,11.17
2022-12-29T10:45:00.213Z,11.17
2022-12-29T10:46:00.385Z,11.19
2022-12-29T10:47:00.533Z,11.29
2022-12-29T10:48:00.700Z,11.26
2022-12-29T10:49:00.947Z,11.29
2022-12-29T10:50:01.062Z,11.30
2022-12-29T10:51:02.285Z,11.22
2022-12-29T10:52:01.386Z,11.14
2022-12-29T10:53:01.567Z,11.08
2022-12-29T10:54:01.842Z,11.07
2022-12-29T10:55:01.933Z,11.05
2022-12-29T10:56:02.116Z,11.02
2022-12-29T10:57:02.385Z,11.04
2022-12-29T10:58:02.461Z,11.04
2022-12-29T10:59:02.648Z,11.04
2022-12-29T11:00:02.829Z,11.05
2022-12-29T11:01:03.132Z,11.08
2022-12-29T11:02:03.391Z,11.10
2022-12-29T11:03:03.437Z,11.36
2022-12-29T11:04:03.513Z,11.44
2022-12-29T11:05:03.694Z,11.43
2022-12-29T11:06:03.865Z,11.35
2022-12-29T11:07:04.072Z,11.18
2022-12-29T11:08:04.276Z,11.14
2022-12-29T11:09:04.442Z,11.26
2022-12-29T11:10:04.609Z,11.14
2022-12-29T11:11:04.788Z,11.05
2022-12-29T11:12:04.977Z,11.02
2022-12-29T11:13:05.157Z,11.02
2022-12-29T11:14:05.319Z,11.05
2022-12-29T11:15:05.485Z,11.02
2022-12-29T11:16:05.696Z,11.05
2022-12-29T11:17:05.852Z,11.04
2022-12-29T11:18:06.013Z,11.04
2022-12-29T11:19:06.204Z,11.02
2022-12-29T11:20:06.345Z,11.04
2022-12-29T11:21:06.531Z,10.99
2022-12-29T11:22:06.704Z,11.00
2022-12-29T11:23:06.908Z,11.00
2022-12-29T11:24:07.076Z,11.02
2022-12-29T11:25:07.266Z,10.99
2022-12-29T11:26:07.425Z,11.00
2022-12-29T11:27:07.605Z,11.00
2022-12-29T11:28:07.785Z,11.00
2022-12-29T11:29:07.944Z,10.96
2022-12-29T11:30:08.157Z,10.96
2022-12-29T11:31:08.358Z,10.93
2022-12-29T11:32:08.602Z,10.93
2022-12-29T11:33:08.640Z,10.90
2022-12-29T11:34:08.809Z,10.92
2022-12-29T11:35:08.970Z,10.90
2022-12-29T11:36:09.176Z,10.89
2022-12-29T11:37:09.366Z,10.86
2022-12-29T11:38:09.522Z,10.79
2022-12-29T11:39:13.963Z,10.76
2022-12-29T11:40:09.982Z,10.71
2022-12-29T11:41:10.233Z,10.67
2022-12-29T11:42:10.455Z,10.61
2022-12-29T11:43:10.531Z,10.59
2022-12-29T11:44:10.695Z,10.56
2022-12-29T11:45:11.373Z,10.53
2022-12-29T11:46:11.213Z,10.48
2022-12-29T11:47:11.356Z,10.53
2022-12-29T11:48:11.517Z,10.54
2022-12-29T11:49:11.665Z,10.51
2022-12-29T11:50:11.855Z,10.51
2022-12-29T11:51:12.018Z,10.51
2022-12-29T11:52:12.226Z,10.46
2022-12-29T11:53:12.407Z,10.49
2022-12-29T11:54:12.524Z,10.53
2022-12-29T11:55:12.698Z,10.54
2022-12-29T11:56:13.032Z,10.57
2022-12-29T11:57:13.220Z,10.53
2022-12-29T11:58:13.346Z,10.48
2022-12-29T11:59:13.509Z,10.46
2022-12-29T12:00:13.677Z,10.46
2022-12-29T12:01:13.859Z,10.46
2022-12-29T12:02:14.213Z,10.44
2022-12-29T12:03:14.281Z,10.46
2022-12-29T12:04:14.437Z,10.53
2022-12-29T12:05:14.601Z,10.54
2022-12-29T12:06:14.755Z,10.56
2022-12-29T12:07:14.951Z,10.57
2022-12-29T12:08:20.436Z,10.59
2022-12-29T12:09:15.314Z,10.59
2022-12-29T12:10:15.458Z,10.60
2022-12-29T12:11:15.623Z,10.61
2022-12-29T12:12:15.938Z,10.64
2022-12-29T12:13:16.149Z,10.61
2022-12-29T12:14:16.322Z,10.61
2022-12-29T12:15:16.452Z,10.60
2022-12-29T12:16:16.690Z,10.63
2022-12-29T12:17:16.821Z,10.60
2022-12-29T12:18:16.997Z,10.61
2022-12-29T12:19:17.164Z,10.60
2022-12-29T12:20:17.363Z,10.59
2022-12-29T12:21:17.539Z,10.57
2022-12-29T12:22:17.869Z,10.61
2022-12-29T12:23:18.048Z,10.63
2022-12-29T12:24:18.264Z,10.61
2022-12-29T12:25:18.464Z,10.61
2022-12-29T12:26:18.596Z,10.63
2022-12-29T12:27:18.790Z,10.72
2022-12-29T12:28:18.985Z,10.76
2022-12-29T12:29:19.122Z,10.79
2022-12-29T12:30:19.312Z,10.81
2022-12-29T12:31:19.536Z,10.89
2022-12-29T12:32:19.659Z,10.89
2022-12-29T12:33:19.934Z,10.92
2022-12-29T12:34:20.116Z,10.90
2022-12-29T12:35:22.159Z,10.93
2022-12-29T12:36:20.509Z,10.96
2022-12-29T12:37:20.883Z,10.97
2022-12-29T12:38:21.033Z,10.89
2022-12-29T12:39:21.183Z,10.82
2022-12-29T12:40:21.358Z,10.75
2022-12-29T12:41:22.121Z,10.72
2022-12-29T12:42:21.727Z,10.69
2022-12-29T12:43:21.897Z,10.68
2022-12-29T12:44:22.082Z,10.64
2022-12-29T12:45:22.401Z,10.61
2022-12-29T12:46:22.626Z,10.67
2022-12-29T12:47:24.491Z,10.79
2022-12-29T12:48:22.960Z,10.86
2022-12-29T12:49:23.128Z,10.87
2022-12-29T12:50:23.310Z,10.86
2022-12-29T12:51:23.452Z,10.82
2022-12-29T12:52:23.771Z,10.89
2022-12-29T12:53:23.913Z,10.87
2022-12-29T12:54:24.230Z,10.97
2022-12-29T12:55:24.462Z,11.05
2022-12-29T12:56:24.695Z,11.02
2022-12-29T12:57:25.052Z,10.99
2022-12-29T12:58:25.299Z,11.00
2022-12-29T12:59:25.572Z,10.97
2022-12-29T13:00:25.866Z,10.97
2022-12-29T13:01:26.287Z,11.04
2022-12-29T13:02:26.588Z,11.02
2022-12-29T13:03:26.591Z,10.97
2022-12-29T13:04:26.804Z,10.93
2022-12-29T13:05:27.463Z,10.89